sensor_id;sensor_type;location;lat;lon;timestamp;P1;durP1;ratioP1;P2;durP2;ratioP2
12921;SDS011;6528;48.086;16.282;2022-11-15T00:00:55;14.80;;;13.47;;
12921;SDS011;6528;48.086;16.282;2022-11-15T00:03:23;16.57;;;14.97;;
12921;SDS011;6528;48.086;16.282;2022-11-15T00:05:51;15.53;;;14.03;;
12921;SDS011;6528;48.086;16.282;2022-11-15T00:08:18;15.60;;;14.20;;
12921;SDS011;6528;48.086;16.282;2022-11-15T00:10:55;15.20;;;13.83;;
12921;SDS011;6528;48.086;16.282;2022-11-15T00:13:23;15.47;;;13.97;;
12921;SDS011;6528;48.086;16.282;2022-11-15T00:15:50;16.67;;;15.07;;
12921;SDS011;6528;48.086;16.282;2022-11-15T00:18:17;15.40;;;14.03;;
12921;SDS011;6528;48.086;16.282;2022-11-15T00:20:44;14.50;;;13.13;;
12921;SDS011;6528;48.086;16.282;2022-11-15T00:23:11;15.37;;;13.90;;
12921;SDS011;6528;48.086;16.282;2022-11-15T00:25:38;14.80;;;13.40;;
12921;SDS011;6528;48.086;16.282;2022-11-15T00:28:05;13.10;;;11.90;;
12921;SDS011;6528;48.086;16.282;2022-11-15T00:30:31;14.97;;;13.57;;
12921;SDS011;6528;48.086;16.282;2022-11-15T00:33:04;13.57;;;12.37;;
12921;SDS011;6528;48.086;16.282;2022-11-15T00:35:32;14.37;;;12.97;;
12921;SDS011;6528;48.086;16.282;2022-11-15T00:38:00;15.30;;;13.90;;
12921;SDS011;6528;48.086;16.282;2022-11-15T00:40:27;13.83;;;12.43;;
12921;SDS011;6528;48.086;16.282;2022-11-15T00:42:55;13.90;;;12.70;;
12921;SDS011;6528;48.086;16.282;2022-11-15T00:45:22;13.83;;;12.63;;
12921;SDS011;6528;48.086;16.282;2022-11-15T00:47:49;14.77;;;12.90;;
12921;SDS011;6528;48.086;16.282;2022-11-15T00:50:17;15.23;;;13.83;;
12921;SDS011;6528;48.086;16.282;2022-11-15T00:52:44;13.53;;;12.20;;
12921;SDS011;6528;48.086;16.282;2022-11-15T00:55:15;13.83;;;12.50;;
12921;SDS011;6528;48.086;16.282;2022-11-15T00:57:43;14.00;;;12.67;;
12921;SDS011;6528;48.086;16.282;2022-11-15T01:00:10;13.47;;;12.17;;
12921;SDS011;6528;48.086;16.282;2022-11-15T01:02:37;12.90;;;11.70;;
12921;SDS011;6528;48.086;16.282;2022-11-15T01:05:04;14.63;;;13.23;;
12921;SDS011;6528;48.086;16.282;2022-11-15T01:07:31;13.73;;;12.53;;
12921;SDS011;6528;48.086;16.282;2022-11-15T01:09:58;13.57;;;12.27;;
12921;SDS011;6528;48.086;16.282;2022-11-15T01:12:25;14.47;;;13.00;;
12921;SDS011;6528;48.086;16.282;2022-11-15T01:14:51;14.30;;;12.90;;
12921;SDS011;6528;48.086;16.282;2022-11-15T01:17:18;13.80;;;12.50;;
12921;SDS011;6528;48.086;16.282;2022-11-15T01:19:45;14.60;;;13.20;;
12921;SDS011;6528;48.086;16.282;2022-11-15T01:22:12;13.57;;;12.17;;
12921;SDS011;6528;48.086;16.282;2022-11-15T01:24:38;13.90;;;12.60;;
12921;SDS011;6528;48.086;16.282;2022-11-15T01:27:05;13.93;;;12.63;;
12921;SDS011;6528;48.086;16.282;2022-11-15T01:29:32;13.57;;;12.30;;
12921;SDS011;6528;48.086;16.282;2022-11-15T01:31:59;13.30;;;12.13;;
12921;SDS011;6528;48.086;16.282;2022-11-15T01:34:25;12.43;;;11.33;;
12921;SDS011;6528;48.086;16.282;2022-11-15T01:36:52;12.37;;;11.27;;
12921;SDS011;6528;48.086;16.282;2022-11-15T01:39:19;12.17;;;11.07;;
12921;SDS011;6528;48.086;16.282;2022-11-15T01:41:46;13.87;;;12.47;;
12921;SDS011;6528;48.086;16.282;2022-11-15T01:47:09;13.87;;;12.67;;
12921;SDS011;6528;48.086;16.282;2022-11-15T01:49:57;13.37;;;12.07;;
12921;SDS011;6528;48.086;16.282;2022-11-15T01:52:25;12.30;;;11.20;;
12921;SDS011;6528;48.086;16.282;2022-11-15T01:54:55;14.33;;;12.93;;
12921;SDS011;6528;48.086;16.282;2022-11-15T01:57:31;12.97;;;11.83;;
12921;SDS011;6528;48.086;16.282;2022-11-15T01:59:58;12.77;;;11.57;;
12921;SDS011;6528;48.086;16.282;2022-11-15T02:02:26;13.53;;;12.23;;
12921;SDS011;6528;48.086;16.282;2022-11-15T02:04:53;12.20;;;11.17;;
12921;SDS011;6528;48.086;16.282;2022-11-15T02:07:20;12.60;;;11.33;;
12921;SDS011;6528;48.086;16.282;2022-11-15T02:09:48;12.47;;;11.37;;
12921;SDS011;6528;48.086;16.282;2022-11-15T02:12:17;12.20;;;11.10;;
12921;SDS011;6528;48.086;16.282;2022-11-15T02:14:48;13.90;;;12.60;;
12921;SDS011;6528;48.086;16.282;2022-11-15T02:27:56;13.00;;;11.80;;
12921;SDS011;6528;48.086;16.282;2022-11-15T02:30:38;12.73;;;11.53;;
12921;SDS011;6528;48.086;16.282;2022-11-15T02:33:26;13.10;;;11.80;;
12921;SDS011;6528;48.086;16.282;2022-11-15T02:41:10;11.50;;;10.50;;
12921;SDS011;6528;48.086;16.282;2022-11-15T02:43:51;12.10;;;11.03;;
12921;SDS011;6528;48.086;16.282;2022-11-15T02:46:35;12.43;;;11.33;;
12921;SDS011;6528;48.086;16.282;2022-11-15T02:49:28;11.40;;;10.37;;
12921;SDS011;6528;48.086;16.282;2022-11-15T02:51:58;12.63;;;11.33;;
12921;SDS011;6528;48.086;16.282;2022-11-15T02:54:26;11.10;;;10.07;;
12921;SDS011;6528;48.086;16.282;2022-11-15T02:57:06;10.77;;;9.77;;
12921;SDS011;6528;48.086;16.282;2022-11-15T03:05:16;11.23;;;10.23;;
12921;SDS011;6528;48.086;16.282;2022-11-15T03:18:41;11.70;;;10.70;;
12921;SDS011;6528;48.086;16.282;2022-11-15T03:21:10;10.80;;;9.70;;
12921;SDS011;6528;48.086;16.282;2022-11-15T03:23:39;11.70;;;10.57;;
12921;SDS011;6528;48.086;16.282;2022-11-15T03:26:07;11.10;;;10.10;;
12921;SDS011;6528;48.086;16.282;2022-11-15T03:28:39;11.37;;;10.27;;
12921;SDS011;6528;48.086;16.282;2022-11-15T03:31:13;11.23;;;10.03;;
12921;SDS011;6528;48.086;16.282;2022-11-15T03:34:00;11.70;;;10.60;;
12921;SDS011;6528;48.086;16.282;2022-11-15T03:36:31;11.53;;;10.50;;
12921;SDS011;6528;48.086;16.282;2022-11-15T03:39:02;11.00;;;9.90;;
12921;SDS011;6528;48.086;16.282;2022-11-15T03:44:41;11.50;;;10.40;;
12921;SDS011;6528;48.086;16.282;2022-11-15T03:47:41;11.33;;;10.13;;
12921;SDS011;6528;48.086;16.282;2022-11-15T03:50:14;10.27;;;9.37;;
12921;SDS011;6528;48.086;16.282;2022-11-15T03:52:47;11.23;;;10.13;;
12921;SDS011;6528;48.086;16.282;2022-11-15T03:55:17;11.10;;;10.10;;
12921;SDS011;6528;48.086;16.282;2022-11-15T03:57:46;11.77;;;10.67;;
12921;SDS011;6528;48.086;16.282;2022-11-15T04:00:15;11.03;;;10.03;;
12921;SDS011;6528;48.086;16.282;2022-11-15T04:02:42;11.67;;;10.57;;
12921;SDS011;6528;48.086;16.282;2022-11-15T04:05:09;12.00;;;10.90;;
12921;SDS011;6528;48.086;16.282;2022-11-15T04:07:36;10.67;;;9.67;;
12921;SDS011;6528;48.086;16.282;2022-11-15T04:10:03;11.57;;;10.47;;
12921;SDS011;6528;48.086;16.282;2022-11-15T04:12:35;11.23;;;10.20;;
12921;SDS011;6528;48.086;16.282;2022-11-15T04:15:04;11.17;;;10.17;;
12921;SDS011;6528;48.086;16.282;2022-11-15T04:17:37;11.00;;;9.97;;
12921;SDS011;6528;48.086;16.282;2022-11-15T04:20:06;10.50;;;9.50;;
12921;SDS011;6528;48.086;16.282;2022-11-15T04:22:55;11.40;;;10.40;;
12921;SDS011;6528;48.086;16.282;2022-11-15T04:25:41;11.40;;;10.40;;
12921;SDS011;6528;48.086;16.282;2022-11-15T04:28:10;10.93;;;9.93;;
12921;SDS011;6528;48.086;16.282;2022-11-15T04:30:37;11.27;;;10.27;;
12921;SDS011;6528;48.086;16.282;2022-11-15T04:33:04;12.73;;;10.70;;
12921;SDS011;6528;48.086;16.282;2022-11-15T04:35:31;10.50;;;9.60;;
12921;SDS011;6528;48.086;16.282;2022-11-15T04:37:58;10.10;;;9.20;;
12921;SDS011;6528;48.086;16.282;2022-11-15T04:40:25;10.73;;;9.73;;
12921;SDS011;6528;48.086;16.282;2022-11-15T04:42:51;10.83;;;9.83;;
12921;SDS011;6528;48.086;16.282;2022-11-15T04:45:18;11.13;;;10.07;;
12921;SDS011;6528;48.086;16.282;2022-11-15T04:47:45;11.03;;;10.03;;
12921;SDS011;6528;48.086;16.282;2022-11-15T04:50:13;12.70;;;11.37;;
12921;SDS011;6528;48.086;16.282;2022-11-15T04:52:41;11.23;;;10.23;;
12921;SDS011;6528;48.086;16.282;2022-11-15T04:55:09;12.23;;;11.13;;
12921;SDS011;6528;48.086;16.282;2022-11-15T04:57:37;12.93;;;11.63;;
12921;SDS011;6528;48.086;16.282;2022-11-15T05:00:05;12.33;;;11.10;;
12921;SDS011;6528;48.086;16.282;2022-11-15T05:02:33;12.07;;;10.87;;
12921;SDS011;6528;48.086;16.282;2022-11-15T05:05:19;13.47;;;12.07;;
12921;SDS011;6528;48.086;16.282;2022-11-15T05:07:45;13.53;;;12.23;;
12921;SDS011;6528;48.086;16.282;2022-11-15T05:10:12;12.73;;;11.57;;
12921;SDS011;6528;48.086;16.282;2022-11-15T05:12:39;13.20;;;11.90;;
12921;SDS011;6528;48.086;16.282;2022-11-15T05:15:06;13.07;;;11.77;;
12921;SDS011;6528;48.086;16.282;2022-11-15T05:17:33;13.77;;;12.33;;
12921;SDS011;6528;48.086;16.282;2022-11-15T05:20:00;12.90;;;11.70;;
12921;SDS011;6528;48.086;16.282;2022-11-15T05:22:27;14.87;;;13.47;;
12921;SDS011;6528;48.086;16.282;2022-11-15T05:24:53;13.97;;;12.47;;
12921;SDS011;6528;48.086;16.282;2022-11-15T05:27:20;13.57;;;12.20;;
12921;SDS011;6528;48.086;16.282;2022-11-15T05:29:47;14.10;;;12.70;;
12921;SDS011;6528;48.086;16.282;2022-11-15T05:32:13;13.00;;;11.80;;
12921;SDS011;6528;48.086;16.282;2022-11-15T05:34:40;12.87;;;11.60;;
12921;SDS011;6528;48.086;16.282;2022-11-15T05:37:07;13.40;;;12.00;;
12921;SDS011;6528;48.086;16.282;2022-11-15T05:39:34;13.53;;;12.20;;
12921;SDS011;6528;48.086;16.282;2022-11-15T05:42:10;13.37;;;12.00;;
12921;SDS011;6528;48.086;16.282;2022-11-15T05:44:39;13.87;;;12.47;;
12921;SDS011;6528;48.086;16.282;2022-11-15T05:47:10;82.97;;;36.67;;
12921;SDS011;6528;48.086;16.282;2022-11-15T05:49:40;119.03;;;48.63;;
12921;SDS011;6528;48.086;16.282;2022-11-15T05:52:10;115.23;;;47.70;;
12921;SDS011;6528;48.086;16.282;2022-11-15T05:54:39;119.40;;;49.10;;
12921;SDS011;6528;48.086;16.282;2022-11-15T05:57:06;116.57;;;47.67;;
12921;SDS011;6528;48.086;16.282;2022-11-15T05:59:33;115.17;;;46.43;;
12921;SDS011;6528;48.086;16.282;2022-11-15T06:02:01;115.83;;;46.53;;
12921;SDS011;6528;48.086;16.282;2022-11-15T06:04:28;98.27;;;46.30;;
12921;SDS011;6528;48.086;16.282;2022-11-15T06:06:54;102.73;;;44.20;;
12921;SDS011;6528;48.086;16.282;2022-11-15T06:09:21;95.97;;;43.77;;
12921;SDS011;6528;48.086;16.282;2022-11-15T06:11:48;83.20;;;41.57;;
12921;SDS011;6528;48.086;16.282;2022-11-15T06:14:15;86.90;;;41.53;;
12921;SDS011;6528;48.086;16.282;2022-11-15T06:16:42;87.97;;;40.63;;
12921;SDS011;6528;48.086;16.282;2022-11-15T06:19:09;83.43;;;41.40;;
12921;SDS011;6528;48.086;16.282;2022-11-15T06:21:36;83.13;;;40.70;;
12921;SDS011;6528;48.086;16.282;2022-11-15T06:24:03;81.20;;;37.43;;
12921;SDS011;6528;48.086;16.282;2022-11-15T06:26:31;75.23;;;40.07;;
12921;SDS011;6528;48.086;16.282;2022-11-15T06:28:58;76.60;;;35.57;;
12921;SDS011;6528;48.086;16.282;2022-11-15T06:31:25;67.90;;;35.70;;
12921;SDS011;6528;48.086;16.282;2022-11-15T06:33:51;73.00;;;36.40;;
12921;SDS011;6528;48.086;16.282;2022-11-15T06:36:18;67.57;;;35.30;;
12921;SDS011;6528;48.086;16.282;2022-11-15T06:38:45;69.70;;;34.87;;
12921;SDS011;6528;48.086;16.282;2022-11-15T06:41:12;65.90;;;34.13;;
12921;SDS011;6528;48.086;16.282;2022-11-15T06:43:40;68.17;;;33.10;;
12921;SDS011;6528;48.086;16.282;2022-11-15T06:46:07;58.07;;;32.97;;
12921;SDS011;6528;48.086;16.282;2022-11-15T06:48:34;51.07;;;33.37;;
12921;SDS011;6528;48.086;16.282;2022-11-15T06:51:01;66.83;;;32.53;;
12921;SDS011;6528;48.086;16.282;2022-11-15T06:53:29;61.63;;;32.10;;
12921;SDS011;6528;48.086;16.282;2022-11-15T06:56:00;57.33;;;33.00;;
12921;SDS011;6528;48.086;16.282;2022-11-15T06:58:27;55.20;;;31.43;;
12921;SDS011;6528;48.086;16.282;2022-11-15T07:00:58;60.73;;;30.33;;
12921;SDS011;6528;48.086;16.282;2022-11-15T07:03:29;50.97;;;29.23;;
12921;SDS011;6528;48.086;16.282;2022-11-15T07:05:57;49.47;;;28.20;;
12921;SDS011;6528;48.086;16.282;2022-11-15T07:08:32;54.03;;;29.47;;
12921;SDS011;6528;48.086;16.282;2022-11-15T07:10:59;53.47;;;28.23;;
12921;SDS011;6528;48.086;16.282;2022-11-15T07:13:28;52.77;;;28.20;;
12921;SDS011;6528;48.086;16.282;2022-11-15T07:16:03;41.10;;;25.13;;
12921;SDS011;6528;48.086;16.282;2022-11-15T07:18:33;52.27;;;28.07;;
12921;SDS011;6528;48.086;16.282;2022-11-15T07:21:04;41.20;;;26.40;;
12921;SDS011;6528;48.086;16.282;2022-11-15T07:23:35;49.03;;;29.33;;
12921;SDS011;6528;48.086;16.282;2022-11-15T07:26:03;41.47;;;25.87;;
12921;SDS011;6528;48.086;16.282;2022-11-15T07:28:30;43.80;;;24.90;;
12921;SDS011;6528;48.086;16.282;2022-11-15T07:30:57;42.47;;;25.80;;
12921;SDS011;6528;48.086;16.282;2022-11-15T07:33:24;37.80;;;25.23;;
12921;SDS011;6528;48.086;16.282;2022-11-15T07:35:51;39.47;;;24.73;;
12921;SDS011;6528;48.086;16.282;2022-11-15T07:38:18;42.07;;;25.30;;
12921;SDS011;6528;48.086;16.282;2022-11-15T07:40:55;34.70;;;23.23;;
12921;SDS011;6528;48.086;16.282;2022-11-15T07:43:26;37.57;;;23.23;;
12921;SDS011;6528;48.086;16.282;2022-11-15T07:45:57;36.70;;;23.30;;
12921;SDS011;6528;48.086;16.282;2022-11-15T07:48:25;38.10;;;23.37;;
12921;SDS011;6528;48.086;16.282;2022-11-15T07:51:05;35.07;;;22.17;;
12921;SDS011;6528;48.086;16.282;2022-11-15T07:53:39;32.37;;;22.10;;
12921;SDS011;6528;48.086;16.282;2022-11-15T07:56:06;34.93;;;22.37;;
12921;SDS011;6528;48.086;16.282;2022-11-15T07:58:33;36.10;;;21.40;;
12921;SDS011;6528;48.086;16.282;2022-11-15T08:01:04;34.80;;;22.17;;
12921;SDS011;6528;48.086;16.282;2022-11-15T08:03:33;27.90;;;21.50;;
12921;SDS011;6528;48.086;16.282;2022-11-15T08:06:00;33.27;;;22.33;;
12921;SDS011;6528;48.086;16.282;2022-11-15T08:08:27;31.20;;;20.80;;
12921;SDS011;6528;48.086;16.282;2022-11-15T08:10:54;29.83;;;20.50;;
12921;SDS011;6528;48.086;16.282;2022-11-15T08:13:21;29.70;;;21.23;;
12921;SDS011;6528;48.086;16.282;2022-11-15T08:15:47;31.63;;;19.40;;
12921;SDS011;6528;48.086;16.282;2022-11-15T08:18:21;30.53;;;20.63;;
12921;SDS011;6528;48.086;16.282;2022-11-15T08:20:48;33.10;;;22.13;;
12921;SDS011;6528;48.086;16.282;2022-11-15T08:23:15;27.70;;;20.37;;
12921;SDS011;6528;48.086;16.282;2022-11-15T08:25:41;26.70;;;18.60;;
12921;SDS011;6528;48.086;16.282;2022-11-15T08:28:09;30.10;;;20.13;;
12921;SDS011;6528;48.086;16.282;2022-11-15T08:30:37;25.37;;;19.03;;
12921;SDS011;6528;48.086;16.282;2022-11-15T08:33:10;26.30;;;17.83;;
12921;SDS011;6528;48.086;16.282;2022-11-15T08:35:39;26.50;;;18.27;;
12921;SDS011;6528;48.086;16.282;2022-11-15T08:38:07;25.53;;;17.47;;
12921;SDS011;6528;48.086;16.282;2022-11-15T08:40:34;31.00;;;19.20;;
12921;SDS011;6528;48.086;16.282;2022-11-15T08:43:01;24.93;;;18.23;;
12921;SDS011;6528;48.086;16.282;2022-11-15T08:45:29;23.27;;;18.07;;
12921;SDS011;6528;48.086;16.282;2022-11-15T08:47:56;21.83;;;17.20;;
12921;SDS011;6528;48.086;16.282;2022-11-15T08:50:23;24.43;;;18.23;;
12921;SDS011;6528;48.086;16.282;2022-11-15T08:52:50;23.40;;;17.07;;
12921;SDS011;6528;48.086;16.282;2022-11-15T08:55:16;24.03;;;18.07;;
12921;SDS011;6528;48.086;16.282;2022-11-15T08:57:43;26.33;;;18.10;;
12921;SDS011;6528;48.086;16.282;2022-11-15T09:00:11;21.87;;;16.20;;
12921;SDS011;6528;48.086;16.282;2022-11-15T09:02:39;19.43;;;16.80;;
12921;SDS011;6528;48.086;16.282;2022-11-15T09:05:06;20.87;;;16.90;;
12921;SDS011;6528;48.086;16.282;2022-11-15T09:07:33;22.13;;;15.93;;
12921;SDS011;6528;48.086;16.282;2022-11-15T09:10:00;22.90;;;16.23;;
12921;SDS011;6528;48.086;16.282;2022-11-15T09:12:27;17.97;;;14.67;;
12921;SDS011;6528;48.086;16.282;2022-11-15T09:14:54;22.30;;;16.10;;
12921;SDS011;6528;48.086;16.282;2022-11-15T09:17:20;22.30;;;15.53;;
12921;SDS011;6528;48.086;16.282;2022-11-15T09:19:50;18.57;;;15.97;;
12921;SDS011;6528;48.086;16.282;2022-11-15T09:22:17;17.10;;;14.83;;
12921;SDS011;6528;48.086;16.282;2022-11-15T09:24:44;18.40;;;14.53;;
12921;SDS011;6528;48.086;16.282;2022-11-15T09:27:11;18.67;;;14.90;;
12921;SDS011;6528;48.086;16.282;2022-11-15T09:29:39;18.30;;;14.40;;
12921;SDS011;6528;48.086;16.282;2022-11-15T09:32:06;19.47;;;15.87;;
12921;SDS011;6528;48.086;16.282;2022-11-15T09:34:33;18.03;;;13.90;;
12921;SDS011;6528;48.086;16.282;2022-11-15T09:37:00;19.97;;;14.20;;
12921;SDS011;6528;48.086;16.282;2022-11-15T09:39:26;19.00;;;14.83;;
12921;SDS011;6528;48.086;16.282;2022-11-15T09:42:06;18.90;;;15.43;;
12921;SDS011;6528;48.086;16.282;2022-11-15T09:44:59;17.33;;;14.13;;
12921;SDS011;6528;48.086;16.282;2022-11-15T09:50:15;16.83;;;14.20;;
12921;SDS011;6528;48.086;16.282;2022-11-15T09:52:56;16.93;;;14.67;;
12921;SDS011;6528;48.086;16.282;2022-11-15T09:55:26;16.50;;;14.47;;
12921;SDS011;6528;48.086;16.282;2022-11-15T09:58:07;20.00;;;13.77;;
12921;SDS011;6528;48.086;16.282;2022-11-15T10:00:44;19.00;;;14.67;;
12921;SDS011;6528;48.086;16.282;2022-11-15T10:03:22;18.17;;;14.10;;
12921;SDS011;6528;48.086;16.282;2022-11-15T10:06:00;16.80;;;13.13;;
12921;SDS011;6528;48.086;16.282;2022-11-15T10:11:23;18.50;;;14.50;;
12921;SDS011;6528;48.086;16.282;2022-11-15T10:14:11;14.93;;;12.40;;
12921;SDS011;6528;48.086;16.282;2022-11-15T10:22:35;15.20;;;12.67;;
12921;SDS011;6528;48.086;16.282;2022-11-15T10:25:24;16.67;;;13.77;;
12921;SDS011;6528;48.086;16.282;2022-11-15T10:28:06;15.47;;;12.83;;
12921;SDS011;6528;48.086;16.282;2022-11-15T10:30:45;14.70;;;12.00;;
12921;SDS011;6528;48.086;16.282;2022-11-15T10:35:45;15.70;;;12.73;;
12921;SDS011;6528;48.086;16.282;2022-11-15T10:38:12;13.77;;;12.37;;
12921;SDS011;6528;48.086;16.282;2022-11-15T10:40:40;14.63;;;12.50;;
12921;SDS011;6528;48.086;16.282;2022-11-15T10:45:42;13.87;;;12.40;;
12921;SDS011;6528;48.086;16.282;2022-11-15T10:50:40;14.70;;;13.07;;
12921;SDS011;6528;48.086;16.282;2022-11-15T10:53:15;12.57;;;11.30;;
12921;SDS011;6528;48.086;16.282;2022-11-15T10:55:56;13.63;;;12.10;;
12921;SDS011;6528;48.086;16.282;2022-11-15T10:58:32;13.63;;;12.20;;
12921;SDS011;6528;48.086;16.282;2022-11-15T11:01:17;14.00;;;11.60;;
12921;SDS011;6528;48.086;16.282;2022-11-15T11:03:57;16.47;;;12.73;;
12921;SDS011;6528;48.086;16.282;2022-11-15T11:06:29;13.93;;;12.53;;
12921;SDS011;6528;48.086;16.282;2022-11-15T11:09:00;14.30;;;12.00;;
12921;SDS011;6528;48.086;16.282;2022-11-15T11:11:50;13.03;;;11.80;;
12921;SDS011;6528;48.086;16.282;2022-11-15T11:14:22;13.80;;;12.40;;
12921;SDS011;6528;48.086;16.282;2022-11-15T11:16:57;13.50;;;12.10;;
12921;SDS011;6528;48.086;16.282;2022-11-15T11:28:05;13.20;;;11.80;;
12921;SDS011;6528;48.086;16.282;2022-11-15T11:34:46;13.57;;;11.73;;
12921;SDS011;6528;48.086;16.282;2022-11-15T11:42:39;14.57;;;12.03;;
12921;SDS011;6528;48.086;16.282;2022-11-15T11:45:15;19.87;;;13.90;;
12921;SDS011;6528;48.086;16.282;2022-11-15T11:48:13;14.40;;;12.33;;
12921;SDS011;6528;48.086;16.282;2022-11-15T11:50:45;15.00;;;13.40;;
12921;SDS011;6528;48.086;16.282;2022-11-15T11:55:59;16.40;;;13.97;;
12921;SDS011;6528;48.086;16.282;2022-11-15T11:58:41;15.17;;;13.57;;
12921;SDS011;6528;48.086;16.282;2022-11-15T12:03:59;16.50;;;13.23;;
12921;SDS011;6528;48.086;16.282;2022-11-15T12:06:36;15.90;;;14.23;;
12921;SDS011;6528;48.086;16.282;2022-11-15T12:09:17;19.33;;;14.43;;
12921;SDS011;6528;48.086;16.282;2022-11-15T12:11:50;16.77;;;13.90;;
12921;SDS011;6528;48.086;16.282;2022-11-15T12:17:05;16.67;;;14.07;;
12921;SDS011;6528;48.086;16.282;2022-11-15T12:19:34;15.97;;;13.63;;
12921;SDS011;6528;48.086;16.282;2022-11-15T12:22:03;15.47;;;13.87;;
12921;SDS011;6528;48.086;16.282;2022-11-15T12:29:56;20.13;;;14.10;;
12921;SDS011;6528;48.086;16.282;2022-11-15T12:32:30;20.77;;;16.07;;
12921;SDS011;6528;48.086;16.282;2022-11-15T12:35:01;17.60;;;15.27;;
12921;SDS011;6528;48.086;16.282;2022-11-15T12:40:14;23.23;;;14.30;;
12921;SDS011;6528;48.086;16.282;2022-11-15T12:45:36;17.20;;;15.17;;
12921;SDS011;6528;48.086;16.282;2022-11-15T12:58:54;16.43;;;14.20;;
12921;SDS011;6528;48.086;16.282;2022-11-15T13:06:49;15.97;;;13.93;;
12921;SDS011;6528;48.086;16.282;2022-11-15T13:12:10;15.37;;;13.13;;
12921;SDS011;6528;48.086;16.282;2022-11-15T13:20:08;14.50;;;12.77;;
12921;SDS011;6528;48.086;16.282;2022-11-15T13:22:41;15.30;;;13.57;;
12921;SDS011;6528;48.086;16.282;2022-11-15T13:35:56;14.30;;;12.13;;
12921;SDS011;6528;48.086;16.282;2022-11-15T13:40:55;14.93;;;13.40;;
12921;SDS011;6528;48.086;16.282;2022-11-15T13:48:35;18.83;;;13.73;;
12921;SDS011;6528;48.086;16.282;2022-11-15T13:51:08;16.07;;;13.53;;
12921;SDS011;6528;48.086;16.282;2022-11-15T13:54:18;15.27;;;13.67;;
12921;SDS011;6528;48.086;16.282;2022-11-15T13:57:04;17.53;;;12.97;;
12921;SDS011;6528;48.086;16.282;2022-11-15T13:59:43;16.03;;;14.00;;
12921;SDS011;6528;48.086;16.282;2022-11-15T14:02:11;15.60;;;13.77;;
12921;SDS011;6528;48.086;16.282;2022-11-15T14:04:48;15.00;;;13.43;;
12921;SDS011;6528;48.086;16.282;2022-11-15T14:07:18;18.20;;;13.80;;
12921;SDS011;6528;48.086;16.282;2022-11-15T14:09:46;15.53;;;14.00;;
12921;SDS011;6528;48.086;16.282;2022-11-15T14:12:22;16.87;;;14.30;;
12921;SDS011;6528;48.086;16.282;2022-11-15T14:14:55;20.60;;;14.63;;
12921;SDS011;6528;48.086;16.282;2022-11-15T14:19:55;15.60;;;13.43;;
12921;SDS011;6528;48.086;16.282;2022-11-15T14:22:24;16.33;;;14.33;;
12921;SDS011;6528;48.086;16.282;2022-11-15T14:27:43;14.37;;;12.90;;
12921;SDS011;6528;48.086;16.282;2022-11-15T14:30:30;16.07;;;14.20;;
12921;SDS011;6528;48.086;16.282;2022-11-15T14:32:56;16.37;;;14.13;;
12921;SDS011;6528;48.086;16.282;2022-11-15T14:35:23;23.93;;;15.03;;
12921;SDS011;6528;48.086;16.282;2022-11-15T14:37:50;14.80;;;13.27;;
12921;SDS011;6528;48.086;16.282;2022-11-15T14:40:21;15.63;;;14.03;;
12921;SDS011;6528;48.086;16.282;2022-11-15T14:42:48;16.80;;;14.00;;
12921;SDS011;6528;48.086;16.282;2022-11-15T14:45:19;15.17;;;13.67;;
12921;SDS011;6528;48.086;16.282;2022-11-15T14:47:47;14.87;;;13.10;;
12921;SDS011;6528;48.086;16.282;2022-11-15T14:50:18;15.40;;;13.50;;
12921;SDS011;6528;48.086;16.282;2022-11-15T14:52:47;15.07;;;13.57;;
12921;SDS011;6528;48.086;16.282;2022-11-15T14:55:16;15.50;;;14.00;;
12921;SDS011;6528;48.086;16.282;2022-11-15T14:57:46;15.07;;;13.47;;
12921;SDS011;6528;48.086;16.282;2022-11-15T15:00:13;15.47;;;13.73;;
12921;SDS011;6528;48.086;16.282;2022-11-15T15:02:41;13.87;;;12.47;;
12921;SDS011;6528;48.086;16.282;2022-11-15T15:05:22;16.03;;;13.60;;
12921;SDS011;6528;48.086;16.282;2022-11-15T15:07:52;13.97;;;12.60;;
12921;SDS011;6528;48.086;16.282;2022-11-15T15:10:21;16.93;;;15.13;;
12921;SDS011;6528;48.086;16.282;2022-11-15T15:13:08;15.70;;;12.93;;
12921;SDS011;6528;48.086;16.282;2022-11-15T15:15:44;14.00;;;12.60;;
12921;SDS011;6528;48.086;16.282;2022-11-15T15:18:12;16.20;;;13.23;;
12921;SDS011;6528;48.086;16.282;2022-11-15T15:20:39;14.47;;;13.00;;
12921;SDS011;6528;48.086;16.282;2022-11-15T15:23:14;15.73;;;14.13;;
12921;SDS011;6528;48.086;16.282;2022-11-15T15:25:43;17.37;;;13.93;;
12921;SDS011;6528;48.086;16.282;2022-11-15T15:28:12;13.93;;;12.53;;
12921;SDS011;6528;48.086;16.282;2022-11-15T15:30:38;13.67;;;12.23;;
12921;SDS011;6528;48.086;16.282;2022-11-15T15:33:05;13.50;;;12.10;;
12921;SDS011;6528;48.086;16.282;2022-11-15T15:35:33;15.10;;;13.43;;
12921;SDS011;6528;48.086;16.282;2022-11-15T15:38:00;15.03;;;12.93;;
12921;SDS011;6528;48.086;16.282;2022-11-15T15:40:28;13.50;;;12.20;;
12921;SDS011;6528;48.086;16.282;2022-11-15T15:42:57;13.67;;;12.37;;
12921;SDS011;6528;48.086;16.282;2022-11-15T15:45:24;14.70;;;12.37;;
12921;SDS011;6528;48.086;16.282;2022-11-15T15:47:52;13.80;;;12.50;;
12921;SDS011;6528;48.086;16.282;2022-11-15T15:50:29;13.93;;;12.53;;
12921;SDS011;6528;48.086;16.282;2022-11-15T15:52:59;13.03;;;11.70;;
12921;SDS011;6528;48.086;16.282;2022-11-15T15:55:29;12.67;;;11.43;;
12921;SDS011;6528;48.086;16.282;2022-11-15T15:57:55;14.33;;;12.80;;
12921;SDS011;6528;48.086;16.282;2022-11-15T16:00:23;13.00;;;11.70;;
12921;SDS011;6528;48.086;16.282;2022-11-15T16:02:51;13.43;;;12.13;;
12921;SDS011;6528;48.086;16.282;2022-11-15T16:05:19;14.60;;;12.43;;
12921;SDS011;6528;48.086;16.282;2022-11-15T16:07:47;13.67;;;12.10;;
12921;SDS011;6528;48.086;16.282;2022-11-15T16:10:31;13.20;;;11.57;;
12921;SDS011;6528;48.086;16.282;2022-11-15T16:13:00;12.93;;;11.50;;
12921;SDS011;6528;48.086;16.282;2022-11-15T16:15:27;14.53;;;13.07;;
12921;SDS011;6528;48.086;16.282;2022-11-15T16:17:57;13.40;;;12.00;;
12921;SDS011;6528;48.086;16.282;2022-11-15T16:23:08;13.67;;;12.30;;
12921;SDS011;6528;48.086;16.282;2022-11-15T16:25:40;13.80;;;12.50;;
12921;SDS011;6528;48.086;16.282;2022-11-15T16:28:12;12.23;;;10.43;;
12921;SDS011;6528;48.086;16.282;2022-11-15T16:30:45;13.40;;;12.10;;
12921;SDS011;6528;48.086;16.282;2022-11-15T16:33:18;14.10;;;12.07;;
12921;SDS011;6528;48.086;16.282;2022-11-15T16:35:46;17.13;;;12.33;;
12921;SDS011;6528;48.086;16.282;2022-11-15T16:38:14;13.23;;;11.77;;
12921;SDS011;6528;48.086;16.282;2022-11-15T16:40:41;13.30;;;12.00;;
12921;SDS011;6528;48.086;16.282;2022-11-15T16:43:08;13.03;;;11.73;;
12921;SDS011;6528;48.086;16.282;2022-11-15T16:45:35;13.40;;;12.10;;
12921;SDS011;6528;48.086;16.282;2022-11-15T16:48:03;16.17;;;11.70;;
12921;SDS011;6528;48.086;16.282;2022-11-15T16:50:31;13.33;;;12.00;;
12921;SDS011;6528;48.086;16.282;2022-11-15T16:53:05;12.33;;;11.13;;
12921;SDS011;6528;48.086;16.282;2022-11-15T16:55:32;16.70;;;14.13;;
12921;SDS011;6528;48.086;16.282;2022-11-15T16:57:58;19.37;;;17.27;;
12921;SDS011;6528;48.086;16.282;2022-11-15T17:00:26;17.73;;;15.93;;
12921;SDS011;6528;48.086;16.282;2022-11-15T17:02:54;18.90;;;17.10;;
12921;SDS011;6528;48.086;16.282;2022-11-15T17:05:21;20.57;;;18.60;;